Hovedside
METAR-TAF:

METAR-TAF

Lufthavner :

Jyväskylä lufthavn

Jyväskylä, Finland

breddegrad: 62-24N, lengdegrad: 025-41E, høyde over havet: 141 m

Gjeldene værobservasjon

Denne rapporten ble laget for 19 minutter siden, klokken 12:20 UTC
Vind 15 kt fra Vest-nordvest, skiftende mellom Vest-sørvest og Nordvest
Temperatur 0°C
Luftfuktighet 64%
Trykk 988 hPa
Sikt 10 km eller mer
Brutte skyer i en høyde av 3300 ft

METAR: EFJY 241220Z 29015KT 250V320 9999 BKN033 00/M06 Q0988

Tid: 14:39 (12:39 UTC)

Varsel

Denne rapporten ble laget for 1 time og 8 minutter siden, klokken 11:31 UTC
Varsel gyldig fra 24. klokken 12 UTC til 25. klokken 12 UTC
Vind 15 kt fra Vest
Sikt 10 km eller mer
Spredte skyer i en høyde av 2500 ft
Midlertidig
fra 24. klokken 12 UTC til 24. klokken 19 UTC
Vind 17 kt fra Vest-nordvest med vindkast opp mot 27 kt
Blir
fra 25. klokken 04 UTC til 25. klokken 06 UTC
Vind 5 kt fra Vest

TAF: EFJY 241131Z 2412/2512 28015KT 9999 SCT025 TEMPO 2412/2419 29017G27KT BECMG 2504/2506 26005KT

Værobservasjoner og værvarsel for over 4000 flyplasser (METAR- og TAF-rapporter).

Tilgjengelige stasjoner er representert av de røde og gule prikkene på kartet.

Hold musepekeren over prikken for å se navnet på stasjonen.

Klikk så for å se værobservasjoner og -varsler.

For å forandre kartet kan du klikke på den grønne knappen med svart kryss for å zoome inn, på den grønne knappen med strek for å zoome ut, eller på de grønne pilene for å se tilstøtende kart.


METAR-TAF: